createdAt,value
2022-10-22T00:01:12.135Z,1.70
2022-10-22T00:04:34.371Z,1.40
2022-10-22T00:07:24.147Z,1.83
2022-10-22T00:13:07.206Z,1.30
2022-10-22T00:15:50.134Z,1.67
2022-10-22T00:18:46.893Z,1.23
2022-10-22T00:21:30.620Z,1.60
2022-10-22T00:24:32.234Z,1.75
2022-10-22T00:27:26.361Z,1.63
2022-10-22T00:30:25.174Z,1.52
2022-10-22T00:33:09.205Z,1.60
2022-10-22T00:36:16.586Z,1.40
2022-10-22T00:39:05.337Z,1.95
2022-10-22T00:41:47.783Z,1.30
2022-10-22T00:45:10.034Z,1.38
2022-10-22T00:47:49.899Z,1.33
2022-10-22T00:50:32.989Z,1.83
2022-10-22T00:53:12.979Z,1.52
2022-10-22T00:56:04.519Z,1.10
2022-10-22T00:58:43.113Z,1.58
2022-10-22T01:01:35.464Z,2.00
2022-10-22T01:04:13.565Z,3.05
2022-10-22T01:06:47.664Z,1.73
2022-10-22T01:09:36.797Z,1.30
2022-10-22T01:12:35.363Z,1.40
2022-10-22T01:15:25.634Z,1.65
2022-10-22T01:18:21.553Z,1.80
2022-10-22T01:21:13.463Z,1.60
2022-10-22T01:24:17.932Z,1.58
2022-10-22T01:27:02.699Z,1.50
2022-10-22T01:30:00.473Z,2.03
2022-10-22T01:32:49.547Z,1.65
2022-10-22T01:35:37.295Z,1.55
2022-10-22T01:38:26.150Z,1.45
2022-10-22T01:41:10.438Z,1.55
2022-10-22T01:43:58.696Z,1.77
2022-10-22T01:51:43.057Z,2.15
2022-10-22T01:54:50.620Z,1.42
2022-10-22T02:02:03.520Z,2.20
2022-10-22T02:04:48.014Z,1.95
2022-10-22T02:07:26.828Z,1.88
2022-10-22T02:10:11.722Z,2.05
2022-10-22T02:13:09.123Z,1.85
2022-10-22T02:16:00.583Z,3.08
2022-10-22T02:18:36.368Z,1.95
2022-10-22T02:21:11.832Z,1.92
2022-10-22T02:23:47.345Z,1.63
2022-10-22T02:27:02.088Z,1.48
2022-10-22T02:30:44.131Z,1.52
2022-10-22T02:33:40.613Z,1.45
2022-10-22T02:36:26.376Z,2.25
2022-10-22T02:39:04.873Z,2.00
2022-10-22T02:41:43.419Z,2.30
2022-10-22T02:44:55.834Z,1.58
2022-10-22T02:48:00.314Z,1.42
2022-10-22T02:50:32.930Z,2.20
2022-10-22T02:57:46.716Z,1.40
2022-10-22T03:00:30.707Z,1.48
2022-10-22T03:03:37.020Z,1.77
2022-10-22T03:08:37.175Z,1.10
2022-10-22T03:11:08.760Z,2.42
2022-10-22T03:13:41.647Z,1.40
2022-10-22T03:16:11.360Z,1.35
2022-10-22T03:18:43.605Z,1.27
2022-10-22T03:21:29.223Z,1.17
2022-10-22T03:24:00.876Z,1.67
2022-10-22T03:26:30.433Z,1.30
2022-10-22T03:29:06.568Z,2.42
2022-10-22T03:32:09.358Z,0.95
2022-10-22T03:34:43.357Z,0.90
2022-10-22T03:37:13.504Z,0.77
2022-10-22T03:39:43.120Z,0.63
2022-10-22T03:42:16.610Z,0.70
2022-10-22T03:44:49.978Z,0.90
2022-10-22T03:47:22.233Z,0.70
2022-10-22T03:49:54.446Z,1.00
2022-10-22T03:52:29.881Z,1.15
2022-10-22T03:55:04.313Z,0.90
2022-10-22T03:57:34.287Z,1.42
2022-10-22T04:00:07.578Z,1.10
2022-10-22T04:02:47.421Z,1.95
2022-10-22T04:05:39.626Z,0.95
2022-10-22T04:08:26.359Z,1.13
2022-10-22T04:11:05.236Z,1.20
2022-10-22T04:13:45.996Z,1.25
2022-10-22T04:16:26.163Z,1.15
2022-10-22T04:19:24.247Z,1.00
2022-10-22T04:21:55.603Z,1.40
2022-10-22T04:24:37.206Z,1.80
2022-10-22T04:27:12.311Z,2.03
2022-10-22T04:29:42.486Z,1.23
2022-10-22T04:32:20.337Z,1.00
2022-10-22T04:34:54.966Z,1.08
2022-10-22T04:37:27.674Z,1.08
2022-10-22T04:40:04.209Z,1.53
2022-10-22T04:42:35.763Z,1.15
2022-10-22T04:45:10.460Z,1.77
2022-10-22T04:47:48.614Z,1.33
2022-10-22T04:50:40.322Z,1.30
2022-10-22T04:53:41.509Z,2.13
2022-10-22T04:56:18.563Z,1.48
2022-10-22T04:58:53.325Z,1.30
2022-10-22T05:01:43.664Z,1.63
2022-10-22T05:04:20.698Z,1.60
2022-10-22T05:06:54.812Z,1.50
2022-10-22T05:09:32.305Z,1.40
2022-10-22T05:12:09.567Z,1.95
2022-10-22T05:14:44.793Z,1.55
2022-10-22T05:17:21.154Z,1.30
2022-10-22T05:19:51.684Z,1.60
2022-10-22T05:22:21.023Z,1.83
2022-10-22T05:24:51.846Z,1.58
2022-10-22T05:27:20.956Z,1.50
2022-10-22T05:29:49.964Z,2.33
2022-10-22T05:32:28.037Z,1.85
2022-10-22T05:35:17.794Z,1.50
2022-10-22T05:38:00.342Z,1.60
2022-10-22T05:40:33.028Z,1.58
2022-10-22T05:43:12.264Z,1.35
2022-10-22T05:45:50.029Z,1.27
2022-10-22T05:48:20.356Z,1.80
2022-10-22T05:50:57.256Z,1.90
2022-10-22T05:53:40.182Z,2.15
2022-10-22T05:56:23.820Z,1.35
2022-10-22T05:58:59.077Z,1.30
2022-10-22T06:01:37.797Z,1.92
2022-10-22T06:04:27.639Z,3.03
2022-10-22T06:07:07.620Z,2.58
2022-10-22T06:09:50.376Z,1.70
2022-10-22T06:12:42.781Z,2.78
2022-10-22T06:15:59.493Z,1.70
2022-10-22T06:18:49.126Z,1.70
2022-10-22T06:21:43.881Z,1.95
2022-10-22T06:24:32.095Z,1.67
2022-10-22T06:27:18.474Z,2.22
2022-10-22T06:30:10.130Z,1.30
2022-10-22T06:32:40.076Z,1.80
2022-10-22T06:35:34.503Z,2.03
2022-10-22T06:38:21.301Z,2.78
2022-10-22T06:41:16.765Z,2.25
2022-10-22T06:44:18.343Z,1.65
2022-10-22T06:47:15.119Z,2.05
2022-10-22T06:50:05.409Z,2.10
2022-10-22T06:52:45.489Z,1.67
2022-10-22T06:55:27.419Z,1.95
2022-10-22T06:58:30.461Z,2.13
2022-10-22T07:01:19.951Z,3.50
2022-10-22T07:04:12.619Z,2.20
2022-10-22T07:06:49.138Z,2.95
2022-10-22T07:10:09.704Z,1.85
2022-10-22T07:13:49.126Z,2.42
2022-10-22T07:16:49.831Z,2.72
2022-10-22T07:19:34.819Z,2.15
2022-10-22T07:22:05.570Z,2.25
2022-10-22T07:24:43.813Z,2.25
2022-10-22T07:27:18.547Z,2.92
2022-10-22T07:29:56.780Z,2.35
2022-10-22T07:32:47.319Z,1.80
2022-10-22T07:35:40.490Z,2.75
2022-10-22T07:38:21.720Z,2.17
2022-10-22T07:40:58.703Z,2.55
2022-10-22T07:43:40.314Z,4.28
2022-10-22T07:46:23.655Z,2.80
2022-10-22T07:49:42.773Z,2.90
2022-10-22T07:53:05.084Z,2.08
2022-10-22T07:56:13.915Z,3.35
2022-10-22T07:59:20.999Z,3.38
2022-10-22T08:02:25.757Z,2.55
2022-10-22T08:05:42.466Z,2.03
2022-10-22T08:08:31.041Z,2.03
2022-10-22T08:11:07.452Z,2.53
2022-10-22T08:14:05.829Z,1.88
2022-10-22T08:17:21.904Z,1.70
2022-10-22T08:20:05.130Z,2.42
2022-10-22T08:23:34.958Z,1.90
2022-10-22T08:26:38.693Z,2.63
2022-10-22T08:29:46.469Z,1.75
2022-10-22T08:32:42.355Z,2.42
2022-10-22T08:35:57.224Z,1.90
2022-10-22T08:39:08.668Z,2.88
2022-10-22T08:42:56.555Z,2.40
2022-10-22T08:46:30.335Z,1.85
2022-10-22T08:53:30.001Z,2.95
2022-10-22T08:57:15.627Z,3.05
2022-10-22T09:00:43.098Z,2.13
2022-10-22T09:04:19.207Z,2.20
2022-10-22T09:10:42.568Z,2.55
2022-10-22T09:13:46.724Z,3.00
2022-10-22T09:16:49.872Z,3.70
2022-10-22T09:19:52.639Z,1.92
2022-10-22T09:22:54.412Z,2.05
2022-10-22T09:25:35.174Z,3.45
2022-10-22T09:28:14.405Z,2.03
2022-10-22T09:30:47.445Z,2.15
2022-10-22T09:33:31.145Z,3.08
2022-10-22T09:36:09.776Z,2.30
2022-10-22T09:38:43.371Z,2.60
2022-10-22T09:41:21.689Z,2.55
2022-10-22T09:43:55.246Z,3.20
2022-10-22T09:46:47.012Z,2.03
2022-10-22T09:49:43.690Z,2.72
2022-10-22T09:53:03.521Z,2.90
2022-10-22T09:56:00.483Z,2.78
2022-10-22T09:58:53.559Z,1.75
2022-10-22T10:01:36.500Z,2.75
2022-10-22T10:04:14.170Z,1.67
2022-10-22T10:07:05.045Z,1.98
2022-10-22T10:09:59.686Z,1.67
2022-10-22T10:19:35.946Z,1.75
2022-10-22T10:23:14.718Z,3.10
2022-10-22T10:25:59.165Z,2.45
2022-10-22T10:33:12.838Z,3.35
2022-10-22T10:36:31.286Z,2.63
2022-10-22T10:40:01.052Z,2.10
2022-10-22T10:43:34.880Z,2.40
2022-10-22T10:46:36.947Z,1.75
2022-10-22T11:04:03.676Z,1.90
2022-10-22T11:12:33.483Z,1.75
2022-10-22T11:16:31.732Z,2.47
2022-10-22T11:20:00.222Z,2.13
2022-10-22T11:23:18.201Z,2.20
2022-10-22T11:26:18.727Z,2.38
2022-10-22T11:38:25.812Z,1.60
2022-10-22T11:41:05.940Z,2.25
2022-10-22T11:43:37.198Z,2.00
2022-10-22T11:49:18.666Z,2.13
2022-10-22T11:52:27.111Z,2.05
2022-10-22T11:54:59.352Z,2.47
2022-10-22T11:57:38.518Z,1.70
2022-10-22T12:00:12.548Z,2.00
2022-10-22T12:02:46.481Z,1.85
2022-10-22T12:05:46.096Z,2.17
2022-10-22T12:08:33.789Z,3.08
2022-10-22T12:11:08.549Z,2.17
2022-10-22T12:16:58.181Z,3.50
2022-10-22T12:19:32.257Z,2.58
2022-10-22T12:22:19.786Z,1.73
2022-10-22T12:24:51.662Z,2.42
2022-10-22T12:27:23.767Z,2.05
2022-10-22T12:29:59.023Z,2.50
2022-10-22T12:33:06.289Z,1.98
2022-10-22T12:35:52.321Z,2.20
2022-10-22T12:39:50.515Z,2.35
2022-10-22T12:42:52.423Z,3.10
2022-10-22T12:45:22.815Z,1.50
2022-10-22T12:48:06.357Z,1.45
2022-10-22T12:50:57.509Z,1.83
2022-10-22T12:53:33.827Z,3.00
2022-10-22T12:56:10.333Z,2.10
2022-10-22T12:58:42.871Z,2.33
2022-10-22T13:01:13.356Z,2.47
2022-10-22T13:03:46.033Z,2.15
2022-10-22T13:06:24.359Z,2.22
2022-10-22T13:09:16.184Z,2.20
2022-10-22T13:11:52.042Z,1.83
2022-10-22T13:14:40.245Z,1.42
2022-10-22T13:18:06.668Z,1.70
2022-10-22T13:21:09.859Z,1.77
2022-10-22T13:23:43.213Z,1.70
2022-10-22T13:26:44.874Z,1.70
2022-10-22T13:29:27.203Z,1.13
2022-10-22T13:32:01.691Z,1.70
2022-10-22T13:34:41.251Z,1.60
2022-10-22T13:39:59.059Z,1.40
2022-10-22T13:43:04.173Z,1.65
2022-10-22T13:45:38.192Z,1.20
2022-10-22T13:48:32.091Z,1.48
2022-10-22T13:52:14.895Z,1.40
2022-10-22T13:55:02.612Z,1.60
2022-10-22T13:57:40.213Z,1.80
2022-10-22T14:00:21.272Z,2.67
2022-10-22T14:02:56.431Z,1.73
2022-10-22T14:05:26.031Z,1.77
2022-10-22T14:07:55.337Z,2.22
2022-10-22T14:10:28.115Z,2.28
2022-10-22T14:12:58.752Z,1.58
2022-10-22T14:15:32.636Z,1.95
2022-10-22T14:18:03.225Z,1.80
2022-10-22T14:23:41.295Z,1.83
2022-10-22T14:26:21.033Z,1.65
2022-10-22T14:29:08.759Z,2.22
2022-10-22T14:34:15.508Z,1.70
2022-10-22T14:36:49.970Z,3.35
2022-10-22T14:39:22.970Z,1.70
2022-10-22T14:41:57.808Z,1.42
2022-10-22T14:44:36.638Z,1.90
2022-10-22T14:49:57.090Z,2.30
2022-10-22T14:53:08.023Z,1.65
2022-10-22T14:55:45.129Z,1.92
2022-10-22T14:58:19.516Z,3.55
2022-10-22T15:01:02.045Z,1.60
2022-10-22T15:03:40.534Z,1.55
2022-10-22T15:06:47.669Z,2.03
2022-10-22T15:12:59.858Z,3.30
2022-10-22T15:21:28.998Z,2.45
2022-10-22T15:25:37.326Z,2.17
2022-10-22T15:31:47.511Z,2.30
2022-10-22T15:34:28.594Z,2.28
2022-10-22T15:38:27.486Z,1.80
2022-10-22T15:45:18.847Z,2.30
2022-10-22T15:48:06.876Z,2.20
2022-10-22T15:50:47.135Z,2.20
2022-10-22T15:53:21.558Z,3.03
2022-10-22T15:55:58.432Z,2.40
2022-10-22T15:58:38.591Z,2.72
2022-10-22T16:05:29.940Z,2.55
2022-10-22T16:08:14.565Z,2.22
2022-10-22T16:11:21.079Z,2.60
2022-10-22T16:14:59.095Z,3.03
2022-10-22T16:17:43.336Z,3.63
2022-10-22T16:20:16.659Z,3.20
2022-10-22T16:26:05.717Z,2.80
2022-10-22T16:28:46.464Z,2.47
2022-10-22T16:31:30.588Z,2.25
2022-10-22T16:34:27.793Z,2.00
2022-10-22T16:37:36.580Z,1.83
2022-10-22T16:40:54.087Z,2.90
2022-10-22T16:48:24.161Z,1.85
2022-10-22T16:51:56.452Z,2.90
2022-10-22T16:54:26.468Z,3.40
2022-10-22T16:57:09.065Z,2.20
2022-10-22T16:59:38.724Z,2.85
2022-10-22T17:02:07.779Z,2.88
2022-10-22T17:04:44.243Z,3.25
2022-10-22T17:07:21.414Z,2.38
2022-10-22T17:09:50.224Z,2.78
2022-10-22T17:12:32.216Z,3.20
2022-10-22T17:15:01.273Z,2.92
2022-10-22T17:17:41.786Z,2.50
2022-10-22T17:20:33.222Z,4.28
2022-10-22T17:23:08.660Z,3.67
2022-10-22T17:25:49.735Z,3.67
2022-10-22T17:28:42.047Z,2.90
2022-10-22T17:31:21.587Z,3.88
2022-10-22T17:33:52.638Z,2.80
2022-10-22T17:36:23.111Z,3.58
2022-10-22T17:38:53.733Z,4.25
2022-10-22T17:41:25.254Z,3.72
2022-10-22T17:44:15.367Z,3.33
2022-10-22T17:46:51.282Z,3.17
2022-10-22T17:49:27.813Z,3.30
2022-10-22T17:51:56.990Z,3.65
2022-10-22T17:54:26.326Z,3.53
2022-10-22T17:56:58.651Z,3.38
2022-10-22T17:59:29.670Z,3.78
2022-10-22T18:02:02.350Z,3.10
2022-10-22T18:04:34.527Z,4.28
2022-10-22T18:07:06.169Z,3.63
2022-10-22T18:09:38.145Z,4.28
2022-10-22T18:12:11.543Z,4.57
2022-10-22T18:14:48.444Z,3.78
2022-10-22T18:17:18.540Z,4.95
2022-10-22T18:19:49.770Z,4.45
2022-10-22T18:24:49.397Z,3.97
2022-10-22T18:27:18.518Z,4.00
2022-10-22T18:30:05.402Z,3.55
2022-10-22T18:39:18.073Z,3.60
2022-10-22T18:41:58.647Z,3.95
2022-10-22T18:44:27.818Z,3.90
2022-10-22T18:47:09.858Z,4.00
2022-10-22T18:53:07.176Z,4.57
2022-10-22T18:56:09.197Z,3.75
2022-10-22T18:58:47.267Z,4.57
2022-10-22T19:04:49.985Z,3.40
2022-10-22T19:07:23.279Z,3.83
2022-10-22T19:10:27.721Z,4.13
2022-10-22T19:13:07.981Z,4.15
2022-10-22T19:15:48.429Z,4.72
2022-10-22T19:18:25.418Z,4.43
2022-10-22T19:21:12.307Z,3.88
2022-10-22T19:31:38.629Z,3.55
2022-10-22T19:34:37.171Z,3.22
2022-10-22T19:37:20.050Z,4.07
2022-10-22T19:43:04.614Z,3.80
2022-10-22T19:45:58.360Z,3.53
2022-10-22T19:49:44.270Z,3.63
2022-10-22T19:52:48.309Z,3.38
2022-10-22T19:55:54.161Z,3.53
2022-10-22T20:06:12.430Z,3.13
2022-10-22T20:09:30.472Z,3.78
2022-10-22T20:12:24.957Z,4.43
2022-10-22T20:14:54.985Z,4.10
2022-10-22T20:17:25.391Z,4.57
2022-10-22T20:19:56.655Z,4.57
2022-10-22T20:22:25.954Z,4.40
2022-10-22T20:24:55.058Z,3.88
2022-10-22T20:27:25.564Z,4.82
2022-10-22T20:29:54.917Z,5.68
2022-10-22T20:32:28.212Z,4.55
2022-10-22T20:34:57.355Z,4.25
2022-10-22T20:37:27.064Z,4.10
2022-10-22T20:40:03.437Z,4.53
2022-10-22T20:42:35.974Z,5.10
2022-10-22T20:45:05.240Z,3.72
2022-10-22T20:47:51.253Z,5.30
2022-10-22T20:50:21.558Z,4.65
2022-10-22T20:52:50.724Z,4.10
2022-10-22T20:55:45.517Z,3.67
2022-10-22T20:58:20.692Z,4.22
2022-10-22T21:00:56.473Z,3.80
2022-10-22T21:03:25.621Z,3.88
2022-10-22T21:05:59.207Z,3.95
2022-10-22T21:08:28.712Z,3.65
2022-10-22T21:15:37.832Z,3.63
2022-10-22T21:18:09.753Z,4.03
2022-10-22T21:20:41.598Z,3.72
2022-10-22T21:23:17.294Z,4.53
2022-10-22T21:25:55.483Z,3.53
2022-10-22T21:28:24.467Z,4.07
2022-10-22T21:30:54.509Z,4.25
2022-10-22T21:33:23.078Z,4.45
2022-10-22T21:35:53.279Z,4.25
2022-10-22T21:38:24.110Z,4.00
2022-10-22T21:40:53.010Z,3.80
2022-10-22T21:43:24.547Z,4.40
2022-10-22T21:46:07.878Z,4.28
2022-10-22T21:48:40.679Z,3.63
2022-10-22T21:51:11.260Z,3.97
2022-10-22T21:53:42.040Z,4.03
2022-10-22T21:56:20.246Z,4.07
2022-10-22T21:58:55.920Z,3.70
2022-10-22T22:01:30.701Z,3.95
2022-10-22T22:04:08.524Z,3.97
2022-10-22T22:06:37.767Z,4.22
2022-10-22T22:09:10.482Z,4.28
2022-10-22T22:11:39.543Z,3.97
2022-10-22T22:14:09.058Z,4.65
2022-10-22T22:16:45.979Z,4.18
2022-10-22T22:19:40.132Z,4.75
2022-10-22T22:22:12.566Z,4.90
2022-10-22T22:24:45.449Z,4.38
2022-10-22T22:27:17.688Z,4.75
2022-10-22T22:29:46.658Z,4.38
2022-10-22T22:32:17.243Z,4.88
2022-10-22T22:34:46.426Z,4.82
2022-10-22T22:37:15.841Z,4.35
2022-10-22T22:39:45.977Z,4.45
2022-10-22T22:42:15.285Z,4.43
2022-10-22T22:44:44.791Z,5.35
2022-10-22T22:47:13.425Z,4.72
2022-10-22T22:49:44.390Z,4.55
2022-10-22T22:54:41.443Z,4.65
2022-10-22T22:57:09.742Z,4.88
2022-10-22T22:59:37.939Z,4.05
2022-10-22T23:02:33.606Z,4.18
2022-10-22T23:05:04.256Z,4.82
2022-10-22T23:07:34.068Z,4.38
2022-10-22T23:10:03.119Z,4.50
2022-10-22T23:12:31.922Z,4.32
2022-10-22T23:15:02.356Z,4.78
2022-10-22T23:17:32.539Z,3.72
2022-10-22T23:20:01.301Z,4.22
2022-10-22T23:22:31.189Z,4.70
2022-10-22T23:24:59.917Z,3.92
2022-10-22T23:27:28.590Z,4.15
2022-10-22T23:29:58.193Z,4.18
2022-10-22T23:32:26.939Z,4.10
2022-10-22T23:34:55.393Z,3.83
2022-10-22T23:37:23.971Z,3.60
2022-10-22T23:39:54.561Z,3.28
2022-10-22T23:42:30.596Z,3.90
2022-10-22T23:44:59.050Z,3.78
2022-10-22T23:47:27.575Z,3.72
2022-10-22T23:49:56.074Z,3.63
2022-10-22T23:52:24.379Z,3.67
2022-10-22T23:54:54.493Z,3.55
2022-10-22T23:57:22.966Z,3.55
2022-10-22T23:59:51.677Z,3.88
